AIRPORT ID: 3CO4

DATE: 2021-12-09 ZULU TIME: 0.55 LOCAL TIME: 17.55


METAR 3CO4 090055Z AUTO 25006KT 10SM 04/M06 A2988

ALTIMETER: A2988 Q1012

DENSITY ALT: 8600 Ft

WIND DIRECT: 260

WIND SPEED: 6 Gust

WIND CONDITIONS:

VISIBILTY: 10SM 9999M

TEMPERATURE: 40 F 4 C

DEW POINT: 22 F -6 C

HUMID: 49%

LCL: 3,000-5,000 feet

RADIO CHECK: 0

ADVISARIES: 0

GREETINGS: 0

CONVERSATIONS: 0